Time;durP1;ratioP1;P1;durP2;ratioP2;P2;SDS_P1;SDS_P2;PMS_P1;PMS_P2;Temp;Humidity;BMP_temperature;BMP_pressure;BME280_temperature;BME280_humidity;BME280_pressure;Samples;Min_cycle;Max_cycle;Signal;HPM_P1;HPM_P2
2022/09/18 00:01:31;;;;;;;17.87;16.53;;;;;;;;;;5062168;28;20482;-81
2022/09/18 00:04:00;;;;;;;18.67;17.13;;;;;;;;;;5061680;28;20450;-79
2022/09/18 00:06:28;;;;;;;19.13;17.50;;;;;;;;;;5062323;28;20418;-81
2022/09/18 00:08:57;;;;;;;17.60;16.40;;;;;;;;;;5062080;28;20461;-80
2022/09/18 00:11:25;;;;;;;17.40;16.20;;;;;;;;;;5061871;28;20945;-81
2022/09/18 00:13:52;;;;;;;18.13;16.83;;;;;;;;;;5062421;28;20462;-83
2022/09/18 00:16:22;;;;;;;18.60;17.20;;;;;;;;;;5062135;28;20437;-80
2022/09/18 00:18:50;;;;;;;19.10;17.50;;;;;;;;;;5062537;28;20453;-81
2022/09/18 00:21:18;;;;;;;18.63;17.30;;;;;;;;;;5062107;28;20453;-80
2022/09/18 00:23:46;;;;;;;18.30;16.80;;;;;;;;;;5061744;28;20493;-81
2022/09/18 00:26:15;;;;;;;19.07;17.77;;;;;;;;;;5062291;28;20455;-81
2022/09/18 00:28:42;;;;;;;18.20;17.10;;;;;;;;;;5062047;28;20428;-81
2022/09/18 00:31:10;;;;;;;19.10;17.70;;;;;;;;;;5061459;28;20466;-80
2022/09/18 00:33:39;;;;;;;18.40;16.90;;;;;;;;;;5062329;28;20456;-81
2022/09/18 00:36:08;;;;;;;18.70;17.20;;;;;;;;;;5062881;28;20450;-81
2022/09/18 00:38:35;;;;;;;17.20;16.13;;;;;;;;;;5062049;28;20439;-81
2022/09/18 00:41:04;;;;;;;18.97;17.60;;;;;;;;;;5061186;28;20417;-81
2022/09/18 00:43:33;;;;;;;20.83;17.93;;;;;;;;;;5061202;28;20495;-81
2022/09/18 00:46:02;;;;;;;18.37;17.07;;;;;;;;;;5062294;28;20461;-81
2022/09/18 00:48:32;;;;;;;17.97;16.63;;;;;;;;;;5062583;28;20817;-81
2022/09/18 00:51:01;;;;;;;20.03;17.40;;;;;;;;;;5062224;28;20441;-81
2022/09/18 00:53:29;;;;;;;18.50;17.07;;;;;;;;;;5061896;28;20465;-81
2022/09/18 00:55:58;;;;;;;16.90;15.90;;;;;;;;;;5062046;28;20428;-81
2022/09/18 00:58:25;;;;;;;17.33;16.13;;;;;;;;;;5061574;28;20473;-81
2022/09/18 01:00:54;;;;;;;17.73;16.27;;;;;;;;;;5062003;28;20922;-81
2022/09/18 01:03:21;;;;;;;17.00;15.80;;;;;;;;;;5061739;28;20494;-81
2022/09/18 01:05:56;;;;;;;21.00;16.93;;;;;;;;;;5062119;28;20429;-81
2022/09/18 01:08:31;;;;;;;17.23;15.97;;;;;;;;;;5062487;28;20537;-81
2022/09/18 01:11:08;;;;;;;21.70;18.03;;;;;;;;;;5060748;28;20480;-81
2022/09/18 01:13:41;;;;;;;19.27;17.50;;;;;;;;;;5061728;28;20471;-80
2022/09/18 01:16:12;;;;;;;17.83;16.53;;;;;;;;;;5062151;28;20499;-81
2022/09/18 01:18:44;;;;;;;17.97;16.63;;;;;;;;;;5061917;28;20415;-81
2022/09/18 01:21:12;;;;;;;20.03;18.20;;;;;;;;;;5061333;28;20489;-81
2022/09/18 01:23:58;;;;;;;18.50;17.10;;;;;;;;;;5060912;28;20857;-81
2022/09/18 01:26:37;;;;;;;17.90;16.50;;;;;;;;;;5061231;28;20457;-80
2022/09/18 01:29:08;;;;;;;18.17;16.73;;;;;;;;;;5062043;28;20489;-81
2022/09/18 01:31:39;;;;;;;18.20;16.77;;;;;;;;;;5060578;28;20470;-81
2022/09/18 01:34:10;;;;;;;17.50;16.30;;;;;;;;;;5061769;28;20436;-80
2022/09/18 01:36:40;;;;;;;19.73;17.73;;;;;;;;;;5061034;28;20445;-81
2022/09/18 01:39:11;;;;;;;18.47;16.93;;;;;;;;;;5062732;28;20423;-81
2022/09/18 01:41:41;;;;;;;18.57;16.73;;;;;;;;;;5061247;28;20470;-81
2022/09/18 01:44:12;;;;;;;18.90;17.00;;;;;;;;;;5061421;28;20530;-81
2022/09/18 01:46:41;;;;;;;17.03;16.00;;;;;;;;;;5061723;28;20438;-81
2022/09/18 01:49:09;;;;;;;19.33;17.60;;;;;;;;;;5061443;28;20442;-81
2022/09/18 01:51:37;;;;;;;18.07;16.40;;;;;;;;;;5062309;28;20465;-81
2022/09/18 01:54:07;;;;;;;29.27;19.20;;;;;;;;;;5064760;28;20470;-81
2022/09/18 01:56:36;;;;;;;16.73;15.53;;;;;;;;;;5065744;28;20457;-81
2022/09/18 01:59:06;;;;;;;19.63;17.93;;;;;;;;;;5064448;28;21277;-81
2022/09/18 02:01:37;;;;;;;18.37;16.87;;;;;;;;;;5064329;28;20440;-80
2022/09/18 02:04:07;;;;;;;18.50;17.13;;;;;;;;;;5065019;28;20434;-80
2022/09/18 02:06:37;;;;;;;19.50;17.63;;;;;;;;;;5064574;28;20474;-81
2022/09/18 02:09:04;;;;;;;18.17;16.37;;;;;;;;;;5065555;28;20447;-81
2022/09/18 02:11:33;;;;;;;17.20;16.20;;;;;;;;;;5064247;28;20453;-80
2022/09/18 02:14:04;;;;;;;18.37;16.87;;;;;;;;;;5064094;28;20477;-81
2022/09/18 02:16:33;;;;;;;17.80;16.60;;;;;;;;;;5064946;28;20492;-80
2022/09/18 02:19:05;;;;;;;17.83;16.53;;;;;;;;;;5064918;28;20438;-81
2022/09/18 02:21:34;;;;;;;17.50;16.40;;;;;;;;;;5063161;28;20462;-81
2022/09/18 02:24:03;;;;;;;18.47;17.07;;;;;;;;;;5064890;28;20486;-81
2022/09/18 02:26:32;;;;;;;18.27;16.87;;;;;;;;;;5065008;28;20435;-81
2022/09/18 02:29:00;;;;;;;16.90;15.90;;;;;;;;;;5065028;28;20458;-80
2022/09/18 02:31:27;;;;;;;18.70;17.17;;;;;;;;;;5063822;28;20616;-81
2022/09/18 02:33:54;;;;;;;17.83;16.60;;;;;;;;;;5063462;28;20437;-81
2022/09/18 02:36:43;;;;;;;17.70;16.40;;;;;;;;;;5064527;28;20489;-81
2022/09/18 02:39:16;;;;;;;18.00;16.90;;;;;;;;;;5064317;28;20435;-81
2022/09/18 02:41:48;;;;;;;18.57;16.93;;;;;;;;;;5063710;28;20421;-80
2022/09/18 02:44:19;;;;;;;18.60;16.70;;;;;;;;;;5064213;28;20470;-80
2022/09/18 02:46:51;;;;;;;21.10;18.87;;;;;;;;;;5064160;28;20446;-81
2022/09/18 02:49:24;;;;;;;18.47;17.00;;;;;;;;;;5064384;28;20450;-81
2022/09/18 02:51:55;;;;;;;19.77;17.70;;;;;;;;;;5063577;28;20950;-80
2022/09/18 02:54:26;;;;;;;18.53;17.03;;;;;;;;;;5063429;28;20448;-80
2022/09/18 02:56:56;;;;;;;18.07;16.83;;;;;;;;;;5064378;28;20422;-81
2022/09/18 02:59:26;;;;;;;18.40;17.30;;;;;;;;;;5064741;28;20461;-80
2022/09/18 03:01:54;;;;;;;23.33;18.47;;;;;;;;;;5063369;28;20427;-80
2022/09/18 03:04:22;;;;;;;18.70;17.50;;;;;;;;;;5062928;28;20441;-81
2022/09/18 03:06:50;;;;;;;18.00;16.80;;;;;;;;;;5064170;28;20449;-80
2022/09/18 03:09:19;;;;;;;17.17;15.90;;;;;;;;;;5064305;28;20454;-81
2022/09/18 03:11:46;;;;;;;22.37;17.93;;;;;;;;;;5063265;28;20446;-80
2022/09/18 03:14:14;;;;;;;17.80;16.73;;;;;;;;;;5063526;28;20794;-81
2022/09/18 03:16:42;;;;;;;18.73;17.43;;;;;;;;;;5063913;28;20413;-80
2022/09/18 03:19:10;;;;;;;26.20;18.80;;;;;;;;;;5063892;28;20797;-81
2022/09/18 03:21:38;;;;;;;25.93;19.43;;;;;;;;;;5063404;28;20450;-80
2022/09/18 03:24:05;;;;;;;20.17;18.30;;;;;;;;;;5062817;28;20524;-81
2022/09/18 03:26:34;;;;;;;17.90;16.80;;;;;;;;;;5063653;28;21140;-80
2022/09/18 03:29:01;;;;;;;18.30;17.00;;;;;;;;;;5063851;28;20942;-80
2022/09/18 03:31:29;;;;;;;19.33;17.70;;;;;;;;;;5063914;28;20462;-80
2022/09/18 03:33:56;;;;;;;18.60;17.30;;;;;;;;;;5063326;28;20522;-81
2022/09/18 03:36:24;;;;;;;17.83;16.87;;;;;;;;;;5062840;28;20478;-81
2022/09/18 03:38:51;;;;;;;19.20;17.17;;;;;;;;;;5062869;28;20539;-80
2022/09/18 03:41:18;;;;;;;19.87;17.93;;;;;;;;;;5063060;28;20454;-81
2022/09/18 03:43:47;;;;;;;18.97;17.50;;;;;;;;;;5063697;28;20493;-81
2022/09/18 03:46:21;;;;;;;17.57;16.37;;;;;;;;;;5063663;28;20435;-80
2022/09/18 03:48:48;;;;;;;18.50;17.10;;;;;;;;;;5063063;28;20478;-80
2022/09/18 03:51:16;;;;;;;18.00;16.80;;;;;;;;;;5062326;28;20450;-80
2022/09/18 03:53:44;;;;;;;19.20;17.40;;;;;;;;;;5062945;28;20526;-81
2022/09/18 03:56:12;;;;;;;19.13;17.60;;;;;;;;;;5063091;28;20488;-80
2022/09/18 03:58:39;;;;;;;18.20;17.00;;;;;;;;;;5062586;28;20536;-80
2022/09/18 04:01:08;;;;;;;20.67;18.60;;;;;;;;;;5063380;28;20469;-82
2022/09/18 04:03:36;;;;;;;19.00;17.80;;;;;;;;;;5063957;28;20461;-81
2022/09/18 04:06:03;;;;;;;17.87;16.87;;;;;;;;;;5063034;28;20548;-80
2022/09/18 04:08:31;;;;;;;17.97;16.67;;;;;;;;;;5062973;28;20446;-81
2022/09/18 04:10:58;;;;;;;19.20;17.63;;;;;;;;;;5062369;28;20462;-81
2022/09/18 04:13:25;;;;;;;17.60;16.30;;;;;;;;;;5062889;28;20474;-81
2022/09/18 04:15:53;;;;;;;18.23;17.13;;;;;;;;;;5063482;28;20475;-81
2022/09/18 04:18:22;;;;;;;19.83;18.20;;;;;;;;;;5062188;28;20470;-81
2022/09/18 04:20:50;;;;;;;17.60;16.33;;;;;;;;;;5062057;28;20455;-81
2022/09/18 04:23:17;;;;;;;18.47;16.63;;;;;;;;;;5061924;28;20516;-82
2022/09/18 04:25:45;;;;;;;18.00;16.53;;;;;;;;;;5063353;28;20424;-80
2022/09/18 04:28:13;;;;;;;23.83;16.60;;;;;;;;;;5062524;28;20478;-81
2022/09/18 04:30:40;;;;;;;16.43;15.53;;;;;;;;;;5059809;28;20450;-80
2022/09/18 04:33:07;;;;;;;18.80;17.40;;;;;;;;;;5047926;28;20955;-80
2022/09/18 04:35:36;;;;;;;17.87;16.47;;;;;;;;;;5054081;28;20442;-80
2022/09/18 04:38:03;;;;;;;17.13;15.93;;;;;;;;;;5050571;28;20976;-81
2022/09/18 04:40:31;;;;;;;17.57;16.27;;;;;;;;;;5055637;28;20443;-80
2022/09/18 04:42:58;;;;;;;17.53;16.13;;;;;;;;;;5049765;28;20493;-81
2022/09/18 04:45:26;;;;;;;16.90;15.90;;;;;;;;;;5056935;28;20450;-81
2022/09/18 04:47:53;;;;;;;18.73;16.80;;;;;;;;;;5062600;28;20449;-80
2022/09/18 04:50:20;;;;;;;19.13;17.63;;;;;;;;;;5046612;28;20791;-80
2022/09/18 04:52:49;;;;;;;19.73;18.00;;;;;;;;;;5046656;28;21006;-81
2022/09/18 04:55:16;;;;;;;17.40;16.40;;;;;;;;;;5050895;28;20425;-80
2022/09/18 04:57:44;;;;;;;18.47;17.20;;;;;;;;;;5062249;28;20842;-80
2022/09/18 05:00:12;;;;;;;17.67;16.37;;;;;;;;;;5062920;28;20474;-81
2022/09/18 05:02:40;;;;;;;18.80;17.40;;;;;;;;;;5061962;28;20473;-82
2022/09/18 05:05:07;;;;;;;25.37;18.23;;;;;;;;;;5061633;28;20474;-81
2022/09/18 05:07:35;;;;;;;18.47;16.90;;;;;;;;;;5062904;28;20458;-81
2022/09/18 05:10:04;;;;;;;17.87;16.53;;;;;;;;;;5062841;28;20454;-81
2022/09/18 05:12:32;;;;;;;17.90;16.80;;;;;;;;;;5062013;28;20455;-79
2022/09/18 05:14:59;;;;;;;18.67;17.17;;;;;;;;;;5063214;28;20451;-79
2022/09/18 05:17:26;;;;;;;20.70;17.87;;;;;;;;;;5061959;28;20456;-79
2022/09/18 05:19:54;;;;;;;17.87;16.73;;;;;;;;;;5063753;28;20455;-79
2022/09/18 05:22:21;;;;;;;18.77;17.10;;;;;;;;;;5062593;28;20465;-79
2022/09/18 05:24:48;;;;;;;17.53;16.33;;;;;;;;;;5062253;28;20482;-79
2022/09/18 05:27:17;;;;;;;17.80;16.43;;;;;;;;;;5066235;28;20445;-79
2022/09/18 05:29:44;;;;;;;17.97;16.77;;;;;;;;;;5066190;28;20466;-79
2022/09/18 05:32:12;;;;;;;19.80;17.73;;;;;;;;;;5066823;28;20448;-79
2022/09/18 05:34:39;;;;;;;19.53;18.07;;;;;;;;;;5067983;28;20799;-79
2022/09/18 05:37:06;;;;;;;17.10;16.30;;;;;;;;;;5066855;28;20441;-79
2022/09/18 05:39:34;;;;;;;17.83;16.57;;;;;;;;;;5067704;28;20457;-79
2022/09/18 05:42:01;;;;;;;18.07;16.57;;;;;;;;;;5065572;28;20490;-79
2022/09/18 05:44:30;;;;;;;18.97;17.10;;;;;;;;;;5066633;28;20993;-79
2022/09/18 05:46:57;;;;;;;18.10;16.80;;;;;;;;;;5066997;28;20454;-79
2022/09/18 05:49:24;;;;;;;18.07;16.80;;;;;;;;;;5066458;28;20450;-79
2022/09/18 05:51:53;;;;;;;18.77;17.13;;;;;;;;;;5066105;28;20473;-79
2022/09/18 05:54:21;;;;;;;18.07;16.70;;;;;;;;;;5067426;28;21024;-79
2022/09/18 05:56:48;;;;;;;20.37;18.67;;;;;;;;;;5068222;28;20448;-79
2022/09/18 05:59:16;;;;;;;20.20;18.97;;;;;;;;;;5066773;28;20434;-79
2022/09/18 06:01:44;;;;;;;18.60;17.40;;;;;;;;;;5065664;28;20481;-79
2022/09/18 06:04:12;;;;;;;20.30;18.77;;;;;;;;;;5067487;28;20485;-79
2022/09/18 06:06:39;;;;;;;19.27;17.83;;;;;;;;;;5066300;28;20933;-79
2022/09/18 06:09:06;;;;;;;20.53;18.90;;;;;;;;;;5066923;28;20429;-79
2022/09/18 06:11:34;;;;;;;20.23;18.40;;;;;;;;;;5065466;28;20470;-80
2022/09/18 06:14:02;;;;;;;20.20;18.43;;;;;;;;;;5066387;28;20525;-79
2022/09/18 06:16:29;;;;;;;20.43;18.63;;;;;;;;;;5067200;28;20439;-79
2022/09/18 06:18:58;;;;;;;19.53;17.87;;;;;;;;;;5067172;28;20437;-79
2022/09/18 06:21:25;;;;;;;20.90;19.10;;;;;;;;;;5065198;28;20457;-79
2022/09/18 06:23:53;;;;;;;20.17;18.43;;;;;;;;;;5066322;28;20508;-79
2022/09/18 06:26:20;;;;;;;18.77;17.57;;;;;;;;;;5067442;28;20417;-79
2022/09/18 06:28:50;;;;;;;24.70;17.97;;;;;;;;;;5066671;28;20443;-79
2022/09/18 06:31:17;;;;;;;20.73;19.17;;;;;;;;;;5067615;28;20514;-79
2022/09/18 06:33:45;;;;;;;18.63;17.53;;;;;;;;;;5065928;28;21005;-79
2022/09/18 06:36:13;;;;;;;19.93;18.43;;;;;;;;;;5066329;28;20454;-80
2022/09/18 06:38:41;;;;;;;19.57;18.03;;;;;;;;;;5063975;28;20454;-79
2022/09/18 06:41:08;;;;;;;23.17;21.00;;;;;;;;;;5065523;28;20942;-79
2022/09/18 06:43:36;;;;;;;18.47;17.33;;;;;;;;;;5065824;28;20848;-79
2022/09/18 06:46:04;;;;;;;20.20;18.70;;;;;;;;;;5065669;28;20462;-80
2022/09/18 06:48:31;;;;;;;19.23;18.03;;;;;;;;;;5065696;28;20479;-79
2022/09/18 06:50:59;;;;;;;19.57;18.40;;;;;;;;;;5064662;28;20454;-79
2022/09/18 06:53:28;;;;;;;19.13;17.90;;;;;;;;;;5066054;28;20467;-79
2022/09/18 06:56:00;;;;;;;18.63;17.30;;;;;;;;;;5065088;28;20473;-79
2022/09/18 06:58:28;;;;;;;22.87;20.57;;;;;;;;;;5065205;28;20442;-79
2022/09/18 07:00:55;;;;;;;19.77;18.37;;;;;;;;;;5065768;28;20450;-79
2022/09/18 07:03:23;;;;;;;20.90;19.20;;;;;;;;;;5064675;28;20482;-79
2022/09/18 07:05:50;;;;;;;22.00;20.07;;;;;;;;;;5065463;28;20435;-79
2022/09/18 07:08:17;;;;;;;21.23;19.50;;;;;;;;;;5064723;28;20416;-79
2022/09/18 07:10:46;;;;;;;19.30;17.87;;;;;;;;;;5065067;28;20454;-79
2022/09/18 07:13:13;;;;;;;19.70;17.73;;;;;;;;;;5064929;28;20462;-79
2022/09/18 07:15:41;;;;;;;19.63;18.20;;;;;;;;;;5065373;28;20826;-79
2022/09/18 07:18:08;;;;;;;21.10;19.10;;;;;;;;;;5065342;28;20466;-79
2022/09/18 07:20:35;;;;;;;17.77;16.70;;;;;;;;;;5065246;28;20525;-79
2022/09/18 07:23:03;;;;;;;18.23;17.17;;;;;;;;;;5065515;28;20951;-79
2022/09/18 07:25:31;;;;;;;18.73;17.37;;;;;;;;;;5066203;28;20486;-79
2022/09/18 07:28:04;;;;;;;18.50;17.20;;;;;;;;;;5063854;28;20443;-79
2022/09/18 07:30:32;;;;;;;19.47;17.73;;;;;;;;;;5063470;28;20467;-79
2022/09/18 07:32:59;;;;;;;17.70;16.70;;;;;;;;;;5064852;28;20455;-79
2022/09/18 07:35:27;;;;;;;18.73;17.27;;;;;;;;;;5065334;28;20830;-80
2022/09/18 07:37:57;;;;;;;23.07;20.40;;;;;;;;;;5064636;28;20420;-80
2022/09/18 07:40:25;;;;;;;19.33;17.77;;;;;;;;;;5063104;28;20431;-79
2022/09/18 07:42:52;;;;;;;20.50;18.57;;;;;;;;;;5063989;28;20462;-79
2022/09/18 07:45:21;;;;;;;17.10;16.10;;;;;;;;;;5062336;28;20474;-79
2022/09/18 07:47:48;;;;;;;18.23;17.10;;;;;;;;;;5064280;28;20950;-80
2022/09/18 07:50:16;;;;;;;17.53;16.40;;;;;;;;;;5064476;28;20453;-79
2022/09/18 07:52:50;;;;;;;17.57;16.40;;;;;;;;;;5057245;28;20457;-75
2022/09/18 07:55:19;;;;;;;17.43;16.43;;;;;;;;;;5056064;28;20453;-76
2022/09/18 07:57:47;;;;;;;17.40;16.30;;;;;;;;;;5056021;28;20784;-76
2022/09/18 08:00:14;;;;;;;16.83;15.83;;;;;;;;;;5056763;28;20721;-76
2022/09/18 08:02:43;;;;;;;17.67;16.50;;;;;;;;;;5056715;28;20489;-85
2022/09/18 08:05:11;;;;;;;17.80;16.60;;;;;;;;;;5063254;28;20483;-82
2022/09/18 08:07:38;;;;;;;19.13;17.63;;;;;;;;;;5060920;28;20458;-82
2022/09/18 08:10:06;;;;;;;17.80;16.70;;;;;;;;;;5062578;28;20442;-82
2022/09/18 08:12:33;;;;;;;16.97;16.07;;;;;;;;;;5062976;28;20457;-82
2022/09/18 08:15:01;;;;;;;18.20;17.20;;;;;;;;;;5065753;28;20442;-81
2022/09/18 08:17:28;;;;;;;19.10;17.60;;;;;;;;;;5065124;28;20457;-81
2022/09/18 08:19:57;;;;;;;17.23;16.13;;;;;;;;;;5061049;28;20766;-76
2022/09/18 08:22:25;;;;;;;19.77;17.80;;;;;;;;;;5055323;28;20524;-76
2022/09/18 08:24:53;;;;;;;17.47;16.40;;;;;;;;;;5057879;28;20470;-75
2022/09/18 08:27:20;;;;;;;21.23;18.27;;;;;;;;;;5057803;28;20930;-76
2022/09/18 08:29:48;;;;;;;18.27;17.03;;;;;;;;;;5056701;28;20471;-76
2022/09/18 08:32:15;;;;;;;18.63;17.53;;;;;;;;;;5059056;28;21000;-76
2022/09/18 08:34:43;;;;;;;18.97;17.87;;;;;;;;;;5058953;28;20571;-76
2022/09/18 08:37:12;;;;;;;19.00;17.90;;;;;;;;;;5055778;28;20482;-76
2022/09/18 08:39:39;;;;;;;19.97;18.90;;;;;;;;;;5059201;28;20546;-76
2022/09/18 08:42:13;;;;;;;19.57;18.00;;;;;;;;;;5057774;28;20469;-77
2022/09/18 08:44:45;;;;;;;18.50;17.40;;;;;;;;;;5057661;28;20467;-76
2022/09/18 08:47:15;;;;;;;18.47;17.47;;;;;;;;;;5057884;28;20471;-77
2022/09/18 08:49:44;;;;;;;23.53;17.97;;;;;;;;;;5058148;28;21036;-76
2022/09/18 08:52:15;;;;;;;19.33;18.23;;;;;;;;;;5059686;28;20459;-76
2022/09/18 08:54:48;;;;;;;19.77;18.50;;;;;;;;;;5058561;28;20493;-76
2022/09/18 08:57:18;;;;;;;20.17;18.77;;;;;;;;;;5059530;28;20474;-76
2022/09/18 08:59:47;;;;;;;19.93;18.53;;;;;;;;;;5059189;28;20446;-76
2022/09/18 09:02:20;;;;;;;19.33;18.20;;;;;;;;;;5061228;28;20559;-76
2022/09/18 09:04:48;;;;;;;17.60;16.70;;;;;;;;;;5061768;28;20505;-76
2022/09/18 09:07:22;;;;;;;18.47;17.47;;;;;;;;;;5062959;28;20489;-76
2022/09/18 09:10:16;;;;;;;21.10;19.50;;;;;;;;;;5062046;28;20468;-75
2022/09/18 09:12:48;;;;;;;20.07;18.57;;;;;;;;;;5015993;28;20466;-75
2022/09/18 09:15:18;;;;;;;19.53;18.23;;;;;;;;;;5064001;28;20430;-75
2022/09/18 09:17:49;;;;;;;20.33;19.03;;;;;;;;;;5063273;28;20443;-76
2022/09/18 09:20:22;;;;;;;19.90;18.70;;;;;;;;;;5058985;28;20438;-75
2022/09/18 09:22:54;;;;;;;20.80;19.60;;;;;;;;;;5063664;28;20856;-75
2022/09/18 09:25:24;;;;;;;21.10;19.97;;;;;;;;;;5063867;28;20473;-75
2022/09/18 09:27:54;;;;;;;22.70;21.20;;;;;;;;;;5060471;28;20480;-75
2022/09/18 09:30:22;;;;;;;24.17;22.10;;;;;;;;;;5059728;28;20541;-75
2022/09/18 09:32:53;;;;;;;21.43;20.10;;;;;;;;;;5061779;28;20440;-75
2022/09/18 09:35:24;;;;;;;20.80;19.60;;;;;;;;;;5063336;28;20803;-75
2022/09/18 09:37:53;;;;;;;21.00;19.83;;;;;;;;;;5062642;28;20530;-75
2022/09/18 09:40:23;;;;;;;21.73;20.13;;;;;;;;;;5063342;28;20430;-76
2022/09/18 09:42:54;;;;;;;21.53;19.97;;;;;;;;;;5061391;28;20474;-77
2022/09/18 09:45:26;;;;;;;19.80;18.70;;;;;;;;;;5062107;28;20441;-76
2022/09/18 09:47:57;;;;;;;20.50;19.40;;;;;;;;;;5060805;28;20502;-83
2022/09/18 09:50:33;;;;;;;24.23;22.63;;;;;;;;;;5057395;28;20758;-75
2022/09/18 09:53:03;;;;;;;23.03;21.43;;;;;;;;;;5056352;28;20478;-75
2022/09/18 09:55:32;;;;;;;23.90;22.50;;;;;;;;;;5056623;28;20472;-75
2022/09/18 09:58:04;;;;;;;24.00;22.60;;;;;;;;;;5057018;28;20446;-83
2022/09/18 10:00:35;;;;;;;22.10;20.13;;;;;;;;;;5057264;28;20789;-75
2022/09/18 10:03:21;;;;;;;21.13;19.73;;;;;;;;;;5054980;28;20540;-75
2022/09/18 10:05:50;;;;;;;22.23;20.50;;;;;;;;;;5057489;28;20521;-76
2022/09/18 10:08:21;;;;;;;26.63;24.40;;;;;;;;;;5058454;28;21159;-76
2022/09/18 10:10:52;;;;;;;24.00;22.40;;;;;;;;;;5057619;28;20877;-76
2022/09/18 10:13:22;;;;;;;21.90;20.50;;;;;;;;;;5058672;28;20473;-76
2022/09/18 10:15:50;;;;;;;24.97;22.70;;;;;;;;;;5061951;28;20445;-76
2022/09/18 10:18:21;;;;;;;22.63;21.00;;;;;;;;;;5059290;28;20539;-77
2022/09/18 10:20:51;;;;;;;23.10;21.60;;;;;;;;;;5056511;28;20421;-76
2022/09/18 10:23:23;;;;;;;22.23;20.77;;;;;;;;;;5061157;28;20569;-76
2022/09/18 10:25:52;;;;;;;23.10;21.40;;;;;;;;;;5059656;28;20528;-76
2022/09/18 10:28:20;;;;;;;23.07;21.57;;;;;;;;;;5061158;28;20390;-89
2022/09/18 10:30:59;;;;;;;22.43;20.67;;;;;;;;;;5062074;28;20541;-89
2022/09/18 10:33:44;;;;;;;30.77;27.67;;;;;;;;;;5063225;28;20470;-89
2022/09/18 10:36:21;;;;;;;22.97;21.53;;;;;;;;;;5063926;28;20942;-84
2022/09/18 10:38:50;;;;;;;24.23;22.53;;;;;;;;;;5060573;28;20443;-78
2022/09/18 10:41:29;;;;;;;21.63;20.53;;;;;;;;;;5059541;28;20434;-78
2022/09/18 10:44:01;;;;;;;22.20;21.00;;;;;;;;;;5059378;28;20496;-78
2022/09/18 10:46:30;;;;;;;20.23;19.23;;;;;;;;;;5060202;28;20798;-78
2022/09/18 10:48:59;;;;;;;20.70;19.50;;;;;;;;;;5058784;28;20953;-78
2022/09/18 10:51:28;;;;;;;20.90;19.47;;;;;;;;;;5062148;28;20446;-78
2022/09/18 10:54:03;;;;;;;19.13;18.03;;;;;;;;;;5058875;28;20481;-78
2022/09/18 10:56:31;;;;;;;21.27;19.60;;;;;;;;;;5057319;28;20443;-78
2022/09/18 10:59:13;;;;;;;20.00;18.90;;;;;;;;;;5060512;28;20454;-83
2022/09/18 11:01:40;;;;;;;22.07;20.47;;;;;;;;;;5056478;28;20412;-78
2022/09/18 11:04:15;;;;;;;19.50;18.53;;;;;;;;;;5057255;28;20426;-78
2022/09/18 11:06:44;;;;;;;19.80;18.77;;;;;;;;;;5057747;28;20980;-77
2022/09/18 11:09:19;;;;;;;19.17;17.97;;;;;;;;;;5057957;28;20462;-78
2022/09/18 11:11:50;;;;;;;19.30;18.10;;;;;;;;;;5056530;28;20926;-78
2022/09/18 11:14:18;;;;;;;20.20;19.10;;;;;;;;;;5057395;28;20476;-78
2022/09/18 11:16:48;;;;;;;19.97;18.67;;;;;;;;;;5061553;28;20457;-78
2022/09/18 11:19:19;;;;;;;21.50;20.30;;;;;;;;;;5057769;28;20462;-78
2022/09/18 11:21:47;;;;;;;20.97;19.77;;;;;;;;;;5056943;28;20411;-78
2022/09/18 11:24:21;;;;;;;22.10;20.77;;;;;;;;;;5057741;28;20950;-78
2022/09/18 11:26:52;;;;;;;22.83;21.40;;;;;;;;;;5057478;28;20504;-78
2022/09/18 11:29:23;;;;;;;25.30;23.70;;;;;;;;;;5061421;28;20451;-78
2022/09/18 11:31:53;;;;;;;28.97;27.20;;;;;;;;;;5059503;28;20405;-78
2022/09/18 11:34:25;;;;;;;25.30;24.13;;;;;;;;;;5058693;28;20450;-78
2022/09/18 11:36:53;;;;;;;30.17;28.50;;;;;;;;;;5065636;28;20617;-86
2022/09/18 11:39:25;;;;;;;56.53;51.30;;;;;;;;;;5062828;28;20436;-89
2022/09/18 11:41:53;;;;;;;76.70;57.90;;;;;;;;;;5061931;28;20510;-80
2022/09/18 11:44:24;;;;;;;54.57;51.70;;;;;;;;;;5065356;28;20462;-80
2022/09/18 11:46:55;;;;;;;50.40;47.53;;;;;;;;;;5066065;28;20484;-80
2022/09/18 11:49:24;;;;;;;46.93;43.97;;;;;;;;;;5066113;28;20450;-82
2022/09/18 11:51:56;;;;;;;42.77;40.37;;;;;;;;;;5064034;28;20481;-85
2022/09/18 11:54:30;;;;;;;45.77;42.90;;;;;;;;;;5064319;28;20454;-79
2022/09/18 11:57:00;;;;;;;42.80;40.43;;;;;;;;;;5065270;28;20451;-79
2022/09/18 11:59:29;;;;;;;44.70;41.90;;;;;;;;;;5064933;28;20954;-79
2022/09/18 12:01:58;;;;;;;51.00;47.03;;;;;;;;;;5061221;28;20477;-80
2022/09/18 12:04:31;;;;;;;43.20;40.60;;;;;;;;;;5063991;28;20453;-79
2022/09/18 12:07:01;;;;;;;47.00;44.30;;;;;;;;;;5063682;28;20469;-79
2022/09/18 12:09:33;;;;;;;43.63;41.13;;;;;;;;;;5063286;28;20430;-79
2022/09/18 12:12:04;;;;;;;43.63;41.03;;;;;;;;;;5061447;28;20501;-79
2022/09/18 12:14:34;;;;;;;39.07;36.70;;;;;;;;;;5062206;28;20934;-79
2022/09/18 12:17:04;;;;;;;39.57;37.00;;;;;;;;;;5043476;28;20487;-80
2022/09/18 12:19:35;;;;;;;39.37;36.97;;;;;;;;;;5042612;28;20820;-79
2022/09/18 12:22:06;;;;;;;39.87;37.00;;;;;;;;;;5041584;28;20475;-79
2022/09/18 12:24:35;;;;;;;41.33;38.83;;;;;;;;;;5041991;28;20530;-79
2022/09/18 12:27:07;;;;;;;44.77;41.97;;;;;;;;;;5041431;28;20507;-79
2022/09/18 12:29:40;;;;;;;44.37;41.50;;;;;;;;;;5042811;28;20816;-79
2022/09/18 12:32:17;;;;;;;43.23;40.80;;;;;;;;;;5040870;28;20456;-79
2022/09/18 12:34:51;;;;;;;41.93;39.13;;;;;;;;;;5040009;28;20477;-79
2022/09/18 12:37:39;;;;;;;41.30;38.80;;;;;;;;;;5041701;28;20825;-79
2022/09/18 12:40:23;;;;;;;42.00;39.43;;;;;;;;;;5038036;28;20472;-79
2022/09/18 12:42:57;;;;;;;41.40;39.00;;;;;;;;;;5061548;28;20436;-79
2022/09/18 12:45:41;;;;;;;50.40;46.80;;;;;;;;;;5061964;28;20495;-79
2022/09/18 12:48:13;;;;;;;44.60;41.80;;;;;;;;;;5064161;28;20443;-78
2022/09/18 12:50:47;;;;;;;95.47;84.47;;;;;;;;;;5061898;28;20436;-78
2022/09/18 12:53:22;;;;;;;49.33;46.23;;;;;;;;;;5062515;28;20462;-78
2022/09/18 12:55:55;;;;;;;49.87;46.87;;;;;;;;;;5065135;28;20426;-78
2022/09/18 12:58:36;;;;;;;54.00;50.40;;;;;;;;;;5058482;28;20474;-78
2022/09/18 13:01:06;;;;;;;55.30;51.83;;;;;;;;;;5059046;28;20450;-78
2022/09/18 13:03:36;;;;;;;51.70;48.60;;;;;;;;;;5056040;28;20474;-78
2022/09/18 13:06:06;;;;;;;56.67;53.17;;;;;;;;;;5056225;28;20478;-78
2022/09/18 13:08:35;;;;;;;55.60;52.27;;;;;;;;;;5057117;28;20439;-78
2022/09/18 13:11:05;;;;;;;57.30;54.10;;;;;;;;;;5046221;28;20479;-79
2022/09/18 13:13:37;;;;;;;59.47;56.40;;;;;;;;;;5036161;28;20829;-84
2022/09/18 13:16:07;;;;;;;55.87;53.00;;;;;;;;;;5039431;28;20431;-87
2022/09/18 13:18:36;;;;;;;55.43;52.20;;;;;;;;;;5037298;28;20588;-78
2022/09/18 13:21:05;;;;;;;53.83;51.03;;;;;;;;;;5043358;28;20488;-78
2022/09/18 13:23:33;;;;;;;51.80;49.10;;;;;;;;;;5041272;28;20486;-78
2022/09/18 13:26:02;;;;;;;54.30;51.40;;;;;;;;;;5036356;28;20544;-78
2022/09/18 13:28:32;;;;;;;57.97;54.77;;;;;;;;;;5035674;28;20422;-78
2022/09/18 13:31:21;;;;;;;56.77;53.73;;;;;;;;;;5034033;28;20466;-78
2022/09/18 13:33:52;;;;;;;58.13;54.93;;;;;;;;;;5033624;28;20531;-78
2022/09/18 13:36:23;;;;;;;58.83;55.67;;;;;;;;;;5033234;28;20453;-78
2022/09/18 13:38:51;;;;;;;56.60;53.60;;;;;;;;;;5033111;28;20447;-78
2022/09/18 13:41:19;;;;;;;61.37;58.07;;;;;;;;;;5035110;28;20451;-78
2022/09/18 13:43:52;;;;;;;62.00;58.83;;;;;;;;;;5042374;28;20564;-78
2022/09/18 13:46:38;;;;;;;60.00;56.80;;;;;;;;;;5040229;28;20484;-79
2022/09/18 13:49:15;;;;;;;57.43;54.57;;;;;;;;;;5046279;28;20435;-78
2022/09/18 13:51:42;;;;;;;61.93;58.37;;;;;;;;;;5045717;28;20474;-85
2022/09/18 13:54:17;;;;;;;57.80;54.80;;;;;;;;;;5043522;28;20466;-92
2022/09/18 13:57:03;;;;;;;58.67;55.47;;;;;;;;;;5045600;28;20455;-83
2022/09/18 13:59:46;;;;;;;60.40;56.80;;;;;;;;;;5048141;28;20487;-94
2022/09/18 14:02:44;;;;;;;58.47;55.33;;;;;;;;;;5050349;28;20864;-89
2022/09/18 14:05:28;;;;;;;55.40;52.40;;;;;;;;;;5044547;28;20451;-84
2022/09/18 14:07:57;;;;;;;58.93;55.70;;;;;;;;;;5044713;28;21023;-86
2022/09/18 14:10:27;;;;;;;59.30;56.00;;;;;;;;;;5044802;28;20451;-87
2022/09/18 14:13:13;;;;;;;57.13;54.20;;;;;;;;;;5046236;28;20463;-86
2022/09/18 14:15:51;;;;;;;56.53;53.33;;;;;;;;;;5048075;28;20447;-86
2022/09/18 14:18:23;;;;;;;61.53;57.47;;;;;;;;;;5046795;28;20463;-88
2022/09/18 14:20:52;;;;;;;54.87;52.10;;;;;;;;;;5046493;28;20452;-83
2022/09/18 14:23:49;;;;;;;70.97;65.80;;;;;;;;;;5047899;28;20486;-82
2022/09/18 14:26:33;;;;;;;63.00;58.50;;;;;;;;;;4985018;28;20478;-83
2022/09/18 14:29:04;;;;;;;58.20;55.40;;;;;;;;;;5039444;28;20505;-82
2022/09/18 14:31:34;;;;;;;57.90;54.33;;;;;;;;;;5046180;28;20489;-83
2022/09/18 14:34:03;;;;;;;60.13;56.53;;;;;;;;;;5045797;28;20470;-84